Weather at Kazlų Rūda Air Base [CLOSED]

Public forecast

Using degrees Celsius for public forecast. Weather courtesy of forecast.io.

Closest aviation weather report (METAR) to Kazlų Rūda Air Base

Closest report is Kaunas International Airport, 21.3 nm (39.4 km) ENE.

2024/06/15 03:20 (retrieved 31 minutes ago)

EYKA 150320Z 00000KT CAVOK 12/10 Q1016

Closest aviation forecast (TAF) to Kazlų Rūda Air Base

Forecast is more than 12 hours old.

Closest forecast is Ämari Air Base, 268.4 nm (497.0 km) N.

2024/06/14 12:18 (retrieved 16 hours ago)

TAF EEEI 141215Z 1412/1512 CNL